createdAt,value
2019-01-11T00:00:37.020Z,2.00
2019-01-11T00:01:37.014Z,1.60
2019-01-11T00:02:36.996Z,1.70
2019-01-11T00:03:37.007Z,1.90
2019-01-11T00:04:36.998Z,2.10
2019-01-11T00:05:36.968Z,2.20
2019-01-11T00:06:36.957Z,1.40
2019-01-11T00:07:36.947Z,1.90
2019-01-11T00:08:36.956Z,1.40
2019-01-11T00:09:36.932Z,2.30
2019-01-11T00:10:36.914Z,1.80
2019-01-11T00:11:36.907Z,1.40
2019-01-11T00:12:36.893Z,1.60
2019-01-11T00:13:36.889Z,1.30
2019-01-11T00:14:36.886Z,2.30
2019-01-11T00:15:36.867Z,1.80
2019-01-11T00:16:36.847Z,1.50
2019-01-11T00:17:36.846Z,2.20
2019-01-11T00:18:36.836Z,1.20
2019-01-11T00:19:36.842Z,2.70
2019-01-11T00:20:36.808Z,1.40
2019-01-11T00:21:36.807Z,2.70
2019-01-11T00:22:36.792Z,1.60
2019-01-11T00:23:36.779Z,2.70
2019-01-11T00:24:36.796Z,1.40
2019-01-11T00:25:36.756Z,2.00
2019-01-11T00:26:36.750Z,2.10
2019-01-11T00:27:36.731Z,1.40
2019-01-11T00:28:36.720Z,1.50
2019-01-11T00:29:36.713Z,2.80
2019-01-11T00:30:36.717Z,1.50
2019-01-11T00:31:36.688Z,2.00
2019-01-11T00:32:36.680Z,1.90
2019-01-11T00:33:36.676Z,2.10
2019-01-11T00:34:36.662Z,2.30
2019-01-11T00:35:36.663Z,1.60
2019-01-11T00:36:36.688Z,1.70
2019-01-11T00:37:36.628Z,2.60
2019-01-11T00:38:36.612Z,1.80
2019-01-11T00:39:36.607Z,2.20
2019-01-11T00:40:36.616Z,1.10
2019-01-11T00:41:36.587Z,1.60
2019-01-11T00:42:36.577Z,1.70
2019-01-11T00:43:36.565Z,1.30
2019-01-11T00:44:36.554Z,1.50
2019-01-11T00:45:36.543Z,2.60
2019-01-11T00:46:36.541Z,3.00
2019-01-11T00:47:36.521Z,1.90
2019-01-11T00:48:36.508Z,2.30
2019-01-11T00:49:36.500Z,1.60
2019-01-11T00:50:36.490Z,1.40
2019-01-11T00:51:36.494Z,1.80
2019-01-11T00:52:36.468Z,1.30
2019-01-11T00:53:36.465Z,1.30
2019-01-11T00:54:36.444Z,1.40
2019-01-11T00:55:36.441Z,2.00
2019-01-11T00:56:36.455Z,2.30
2019-01-11T00:57:36.417Z,1.50
2019-01-11T00:58:36.410Z,1.50
2019-01-11T00:59:36.395Z,1.50
2019-01-11T01:00:36.384Z,1.60
2019-01-11T01:01:36.382Z,2.20
2019-01-11T01:02:36.383Z,1.80
2019-01-11T01:03:36.353Z,1.50
2019-01-11T01:04:36.342Z,1.60
2019-01-11T01:05:36.338Z,1.80
2019-01-11T01:06:36.322Z,2.50
2019-01-11T01:07:36.325Z,1.70
2019-01-11T01:08:36.309Z,1.50
2019-01-11T01:09:36.290Z,1.50
2019-01-11T01:10:36.317Z,2.10
2019-01-11T01:11:36.276Z,2.00
2019-01-11T01:12:36.285Z,2.40
2019-01-11T01:13:36.251Z,1.90
2019-01-11T01:14:36.878Z,1.80
2019-01-11T01:15:36.229Z,1.90
2019-01-11T01:16:36.215Z,2.10
2019-01-11T01:17:36.213Z,1.60
2019-01-11T01:18:36.214Z,1.60
2019-01-11T01:19:36.182Z,1.30
2019-01-11T01:20:36.174Z,2.00
2019-01-11T01:21:36.157Z,1.80
2019-01-11T01:22:36.150Z,2.00
2019-01-11T01:23:36.204Z,2.00
2019-01-11T01:24:36.132Z,1.70
2019-01-11T01:25:36.119Z,2.80
2019-01-11T01:26:36.108Z,1.80
2019-01-11T01:27:36.105Z,1.90
2019-01-11T01:28:36.114Z,1.40
2019-01-11T01:29:36.080Z,3.00
2019-01-11T01:30:36.065Z,2.00
2019-01-11T01:31:36.063Z,1.40
2019-01-11T01:32:36.047Z,1.40
2019-01-11T01:33:36.033Z,2.30
2019-01-11T01:34:36.040Z,1.50
2019-01-11T01:35:36.021Z,2.10
2019-01-11T01:36:36.000Z,2.20
2019-01-11T01:37:35.994Z,2.00
2019-01-11T01:38:35.985Z,1.80
2019-01-11T01:39:36.021Z,2.00
2019-01-11T01:40:35.956Z,2.30
2019-01-11T01:41:35.948Z,1.80
2019-01-11T01:42:35.936Z,2.10
2019-01-11T01:43:35.927Z,1.30
2019-01-11T01:44:35.940Z,1.80
2019-01-11T01:45:35.915Z,1.30
2019-01-11T01:46:35.895Z,2.30
2019-01-11T01:47:35.882Z,2.00
2019-01-11T01:48:35.879Z,1.70
2019-01-11T01:49:35.870Z,1.70
2019-01-11T01:50:35.865Z,2.80
2019-01-11T01:51:35.845Z,1.40
2019-01-11T01:52:35.828Z,1.70
2019-01-11T01:53:35.818Z,1.70
2019-01-11T01:54:35.811Z,1.80
2019-01-11T01:55:35.810Z,1.80
2019-01-11T01:56:35.787Z,1.50
2019-01-11T01:57:35.788Z,2.10
2019-01-11T01:58:35.770Z,1.50
2019-01-11T01:59:35.755Z,1.30
2019-01-11T02:00:35.764Z,1.80
2019-01-11T02:01:35.735Z,1.70
2019-01-11T02:02:35.723Z,1.80
2019-01-11T02:03:35.713Z,1.80
2019-01-11T02:04:35.700Z,2.60
2019-01-11T02:05:35.722Z,2.10
2019-01-11T02:06:35.682Z,1.90
2019-01-11T02:07:35.673Z,2.90
2019-01-11T02:08:35.664Z,3.20
2019-01-11T02:09:35.650Z,2.00
2019-01-11T02:10:35.641Z,2.30
2019-01-11T02:11:35.647Z,1.80
2019-01-11T02:12:35.618Z,1.70
2019-01-11T02:13:35.606Z,1.90
2019-01-11T02:14:35.597Z,1.80
2019-01-11T02:15:35.587Z,1.70
2019-01-11T02:16:35.602Z,2.30
2019-01-11T02:17:35.563Z,1.70
2019-01-11T02:18:35.559Z,1.80
2019-01-11T02:19:35.546Z,1.80
2019-01-11T02:20:35.531Z,2.20
2019-01-11T02:21:35.521Z,1.20
2019-01-11T02:22:35.531Z,2.00
2019-01-11T02:23:35.499Z,2.30
2019-01-11T02:24:35.507Z,1.50
2019-01-11T02:25:35.480Z,2.30
2019-01-11T02:26:35.471Z,1.60
2019-01-11T02:27:35.475Z,2.30
2019-01-11T02:28:35.493Z,1.80
2019-01-11T02:29:35.461Z,2.00
2019-01-11T02:30:35.427Z,1.90
2019-01-11T02:31:35.417Z,2.20
2019-01-11T02:32:35.442Z,1.50
2019-01-11T02:33:35.392Z,1.90
2019-01-11T02:34:35.398Z,2.40
2019-01-11T02:35:35.379Z,2.40
2019-01-11T02:36:35.367Z,2.20
2019-01-11T02:37:35.352Z,3.30
2019-01-11T02:38:35.359Z,2.10
2019-01-11T02:39:35.338Z,2.00
2019-01-11T02:40:35.317Z,2.30
2019-01-11T02:41:35.317Z,2.10
2019-01-11T02:42:35.298Z,1.70
2019-01-11T02:43:35.302Z,3.00
2019-01-11T02:44:35.274Z,2.10
2019-01-11T02:45:35.273Z,1.60
2019-01-11T02:46:35.259Z,1.70
2019-01-11T02:47:35.250Z,2.10
2019-01-11T02:48:35.251Z,1.60
2019-01-11T02:49:40.043Z,2.10
2019-01-11T02:50:36.213Z,2.40
2019-01-11T02:51:35.200Z,2.20
2019-01-11T02:52:35.191Z,1.80
2019-01-11T02:53:35.208Z,2.50
2019-01-11T02:54:35.170Z,2.20
2019-01-11T02:55:35.172Z,2.50
2019-01-11T02:56:35.154Z,2.70
2019-01-11T02:57:35.136Z,2.70
2019-01-11T02:58:35.131Z,3.00
2019-01-11T02:59:35.135Z,1.70
2019-01-11T03:00:35.108Z,1.70
2019-01-11T03:01:35.098Z,1.90
2019-01-11T03:02:35.091Z,2.30
2019-01-11T03:03:35.074Z,2.40
2019-01-11T03:04:35.080Z,2.30
2019-01-11T03:05:35.058Z,1.50
2019-01-11T03:06:35.041Z,1.90
2019-01-11T03:07:35.028Z,1.60
2019-01-11T03:08:35.021Z,2.00
2019-01-11T03:09:35.043Z,1.90
2019-01-11T03:10:34.995Z,2.70
2019-01-11T03:11:34.988Z,1.60
2019-01-11T03:12:34.986Z,1.90
2019-01-11T03:13:34.976Z,3.10
2019-01-11T03:14:34.956Z,1.80
2019-01-11T03:15:34.969Z,1.80
2019-01-11T03:16:34.935Z,2.00
2019-01-11T03:17:34.924Z,2.30
2019-01-11T03:18:34.912Z,1.70
2019-01-11T03:19:34.905Z,2.10
2019-01-11T03:20:34.911Z,1.70
2019-01-11T03:21:34.887Z,2.20
2019-01-11T03:22:34.878Z,2.70
2019-01-11T03:23:34.865Z,2.30
2019-01-11T03:24:34.852Z,2.50
2019-01-11T03:25:34.859Z,2.60
2019-01-11T03:26:34.839Z,3.30
2019-01-11T03:27:34.825Z,2.20
2019-01-11T03:28:34.814Z,2.30
2019-01-11T03:29:34.919Z,1.90
2019-01-11T03:30:34.805Z,1.70
2019-01-11T03:31:34.785Z,2.00
2019-01-11T03:32:34.773Z,2.30
2019-01-11T03:33:34.760Z,2.80
2019-01-11T03:34:34.750Z,3.20
2019-01-11T03:35:34.763Z,2.10
2019-01-11T03:36:34.730Z,2.00
2019-01-11T03:37:34.714Z,1.90
2019-01-11T03:38:34.707Z,2.60
2019-01-11T03:39:34.696Z,2.60
2019-01-11T03:40:34.686Z,1.60
2019-01-11T03:41:34.687Z,2.60
2019-01-11T03:42:34.666Z,4.20
2019-01-11T03:43:34.652Z,2.30
2019-01-11T03:44:34.642Z,2.10
2019-01-11T03:45:34.636Z,2.70
2019-01-11T03:46:34.631Z,2.10
2019-01-11T03:47:34.612Z,2.30
2019-01-11T03:48:34.609Z,2.70
2019-01-11T03:49:34.601Z,3.10
2019-01-11T03:50:34.588Z,2.40
2019-01-11T03:51:34.582Z,2.70
2019-01-11T03:52:34.558Z,3.20
2019-01-11T03:53:34.544Z,2.70
2019-01-11T03:54:34.534Z,2.30
2019-01-11T03:55:34.526Z,2.10
2019-01-11T03:56:34.536Z,2.20
2019-01-11T03:57:34.504Z,2.10
2019-01-11T03:58:34.497Z,1.90
2019-01-11T03:59:34.487Z,2.70
2019-01-11T04:00:34.478Z,1.90
2019-01-11T04:01:34.486Z,2.10
2019-01-11T04:02:34.453Z,1.90
2019-01-11T04:03:34.439Z,1.90
2019-01-11T04:04:34.428Z,3.30
2019-01-11T04:05:34.422Z,1.90
2019-01-11T04:06:34.412Z,2.00
2019-01-11T04:07:34.413Z,1.70
2019-01-11T04:08:34.399Z,2.50
2019-01-11T04:09:34.389Z,2.90
2019-01-11T04:10:34.372Z,2.20
2019-01-11T04:11:34.356Z,1.70
2019-01-11T04:12:34.395Z,1.90
2019-01-11T04:13:34.334Z,2.40
2019-01-11T04:14:34.325Z,2.40
2019-01-11T04:15:34.314Z,1.70
2019-01-11T04:16:34.303Z,2.80
2019-01-11T04:17:34.310Z,2.40
2019-01-11T04:18:34.281Z,2.70
2019-01-11T04:19:34.269Z,2.60
2019-01-11T04:20:34.262Z,2.00
2019-01-11T04:21:34.250Z,2.40
2019-01-11T04:22:34.259Z,1.90
2019-01-11T04:23:34.229Z,1.30
2019-01-11T04:24:34.224Z,2.30
2019-01-11T04:25:34.209Z,2.40
2019-01-11T04:26:34.204Z,1.60
2019-01-11T04:27:34.213Z,1.70
2019-01-11T04:28:34.176Z,1.60
2019-01-11T04:29:34.171Z,1.70
2019-01-11T04:30:34.155Z,1.90
2019-01-11T04:31:34.148Z,1.70
2019-01-11T04:32:34.163Z,2.10
2019-01-11T04:33:34.129Z,2.90
2019-01-11T04:34:34.113Z,1.90
2019-01-11T04:35:34.101Z,1.90
2019-01-11T04:36:34.097Z,3.00
2019-01-11T04:37:34.078Z,2.60
2019-01-11T04:38:34.084Z,2.50
2019-01-11T04:39:34.056Z,1.90
2019-01-11T04:40:34.532Z,1.90
2019-01-11T04:41:34.039Z,2.90
2019-01-11T04:42:34.032Z,2.10
2019-01-11T04:43:34.040Z,2.30
2019-01-11T04:44:34.010Z,2.20
2019-01-11T04:45:33.999Z,2.00
2019-01-11T04:46:33.986Z,1.90
2019-01-11T04:47:33.985Z,2.00
2019-01-11T04:48:33.985Z,2.60
2019-01-11T04:49:33.957Z,2.20
2019-01-11T04:50:33.950Z,2.10
2019-01-11T04:51:33.935Z,2.20
2019-01-11T04:52:33.931Z,3.00
2019-01-11T04:53:33.932Z,2.60
2019-01-11T04:54:33.914Z,2.00
2019-01-11T04:55:33.897Z,1.70
2019-01-11T04:56:33.892Z,2.10
2019-01-11T04:57:33.877Z,2.00
2019-01-11T04:58:33.886Z,1.20
2019-01-11T04:59:33.859Z,2.50
2019-01-11T05:00:33.849Z,2.00
2019-01-11T05:01:33.834Z,1.60
2019-01-11T05:02:33.823Z,1.50
2019-01-11T05:03:33.846Z,1.40
2019-01-11T05:04:33.808Z,2.80
2019-01-11T05:05:33.790Z,1.50
2019-01-11T05:06:33.782Z,2.20
2019-01-11T05:07:33.768Z,2.10
2019-01-11T05:08:33.771Z,2.90
2019-01-11T05:09:33.761Z,2.10
2019-01-11T05:10:33.741Z,2.80
2019-01-11T05:11:33.726Z,2.90
2019-01-11T05:12:33.721Z,3.40
2019-01-11T05:13:33.715Z,3.10
2019-01-11T05:14:33.713Z,2.60
2019-01-11T05:15:33.698Z,4.30
2019-01-11T05:16:39.405Z,2.40
2019-01-11T05:17:34.669Z,2.00
2019-01-11T05:18:33.663Z,2.20
2019-01-11T05:19:33.689Z,2.10
2019-01-11T05:20:33.635Z,2.90
2019-01-11T05:21:33.628Z,2.10
2019-01-11T05:22:33.624Z,2.60
2019-01-11T05:23:33.615Z,2.50
2019-01-11T05:24:33.614Z,2.80
2019-01-11T05:25:33.581Z,2.30
2019-01-11T05:26:33.581Z,2.10
2019-01-11T05:27:33.557Z,3.40
2019-01-11T05:28:33.570Z,2.60
2019-01-11T05:29:33.549Z,2.30
2019-01-11T05:30:33.533Z,3.20
2019-01-11T05:31:33.514Z,3.80
2019-01-11T05:32:33.506Z,6.30
2019-01-11T05:33:33.498Z,2.30
2019-01-11T05:34:33.520Z,3.10
2019-01-11T05:35:33.472Z,3.10
2019-01-11T05:36:33.467Z,2.60
2019-01-11T05:37:33.455Z,2.80
2019-01-11T05:38:33.447Z,3.30
2019-01-11T05:39:33.435Z,4.00
2019-01-11T05:40:33.434Z,2.80
2019-01-11T05:41:33.421Z,3.60
2019-01-11T05:42:33.399Z,3.00
2019-01-11T05:43:33.398Z,2.90
2019-01-11T05:44:33.383Z,2.20
2019-01-11T05:45:33.382Z,2.00
2019-01-11T05:46:33.363Z,3.60
2019-01-11T05:47:33.354Z,2.60
2019-01-11T05:48:33.338Z,3.30
2019-01-11T05:49:33.335Z,2.10
2019-01-11T05:50:33.338Z,3.40
2019-01-11T05:51:33.318Z,4.00
2019-01-11T05:52:33.303Z,4.50
2019-01-11T05:53:33.292Z,3.80
2019-01-11T05:54:33.279Z,4.40
2019-01-11T05:55:33.281Z,3.30
2019-01-11T05:56:33.260Z,4.30
2019-01-11T05:57:33.247Z,2.60
2019-01-11T05:58:33.237Z,5.50
2019-01-11T05:59:33.229Z,6.70
2019-01-11T06:00:33.235Z,12.10
2019-01-11T06:01:33.207Z,6.40
2019-01-11T06:02:33.193Z,9.70
2019-01-11T06:03:33.185Z,7.40
2019-01-11T06:04:33.178Z,10.10
2019-01-11T06:05:33.193Z,9.10
2019-01-11T06:06:33.160Z,14.00
2019-01-11T06:07:33.148Z,7.90
2019-01-11T06:08:33.160Z,13.00
2019-01-11T06:09:33.124Z,8.70
2019-01-11T06:10:33.111Z,6.40
2019-01-11T06:11:33.114Z,10.30
2019-01-11T06:12:33.093Z,15.80
2019-01-11T06:13:33.086Z,7.30
2019-01-11T06:14:33.067Z,11.00
2019-01-11T06:15:33.058Z,9.80
2019-01-11T06:16:33.061Z,9.00
2019-01-11T06:17:33.043Z,11.30
2019-01-11T06:18:33.029Z,10.10
2019-01-11T06:19:33.015Z,7.40
2019-01-11T06:20:33.011Z,11.00
2019-01-11T06:21:33.017Z,13.10
2019-01-11T06:22:32.997Z,10.10
2019-01-11T06:23:32.975Z,17.90
2019-01-11T06:24:32.966Z,11.90
2019-01-11T06:25:32.998Z,13.30
2019-01-11T06:26:32.964Z,8.10
2019-01-11T06:27:32.932Z,6.80
2019-01-11T06:28:32.923Z,8.80
2019-01-11T06:29:32.919Z,6.70
2019-01-11T06:30:32.908Z,8.50
2019-01-11T06:31:32.922Z,7.40
2019-01-11T06:32:32.881Z,9.00
2019-01-11T06:33:32.873Z,7.60
2019-01-11T06:34:32.866Z,8.40
2019-01-11T06:35:32.875Z,10.70
2019-01-11T06:36:32.845Z,7.00
2019-01-11T06:37:32.841Z,7.90
2019-01-11T06:38:32.816Z,6.00
2019-01-11T06:39:32.808Z,9.20
2019-01-11T06:40:32.807Z,8.80
2019-01-11T06:41:32.790Z,8.60
2019-01-11T06:42:32.783Z,9.00
2019-01-11T06:43:32.765Z,13.20
2019-01-11T06:44:38.787Z,10.60
2019-01-11T06:45:33.740Z,9.30
2019-01-11T06:46:32.738Z,8.80
2019-01-11T06:47:32.738Z,8.80
2019-01-11T06:48:32.711Z,8.90
2019-01-11T06:49:32.700Z,9.40
2019-01-11T06:50:36.492Z,10.50
2019-01-11T06:51:32.678Z,11.00
2019-01-11T06:52:32.687Z,11.40
2019-01-11T06:53:32.654Z,9.10
2019-01-11T06:54:32.649Z,9.10
2019-01-11T06:55:32.635Z,11.70
2019-01-11T06:56:32.628Z,7.40
2019-01-11T06:57:32.645Z,8.00
2019-01-11T06:58:32.606Z,6.90
2019-01-11T06:59:32.596Z,6.70
2019-01-11T07:00:32.589Z,6.90
2019-01-11T07:01:32.573Z,7.70
2019-01-11T07:02:32.572Z,4.50
2019-01-11T07:03:32.562Z,6.50
2019-01-11T07:04:32.540Z,7.80
2019-01-11T07:05:32.532Z,9.20
2019-01-11T07:06:32.519Z,8.10
2019-01-11T07:07:32.517Z,7.40
2019-01-11T07:08:32.512Z,7.00
2019-01-11T07:09:32.493Z,5.00
2019-01-11T07:10:32.485Z,8.60
2019-01-11T07:11:32.468Z,5.70
2019-01-11T07:12:32.461Z,5.90
2019-01-11T07:13:32.457Z,8.60
2019-01-11T07:14:32.437Z,5.60
2019-01-11T07:15:32.425Z,6.50
2019-01-11T07:16:32.413Z,5.60
2019-01-11T07:17:32.404Z,7.80
2019-01-11T07:18:32.422Z,5.30
2019-01-11T07:19:32.387Z,5.50
2019-01-11T07:20:32.369Z,7.90
2019-01-11T07:21:32.357Z,5.40
2019-01-11T07:22:32.351Z,4.20
2019-01-11T07:23:32.342Z,3.80
2019-01-11T07:24:32.336Z,6.50
2019-01-11T07:25:32.316Z,3.50
2019-01-11T07:26:32.305Z,5.30
2019-01-11T07:27:32.296Z,5.90
2019-01-11T07:28:32.281Z,5.80
2019-01-11T07:29:32.283Z,4.70
2019-01-11T07:30:32.264Z,4.70
2019-01-11T07:31:32.250Z,5.70
2019-01-11T07:32:32.237Z,6.20
2019-01-11T07:33:32.232Z,5.30
2019-01-11T07:34:32.230Z,5.40
2019-01-11T07:35:32.208Z,4.30
2019-01-11T07:36:32.195Z,5.60
2019-01-11T07:37:32.199Z,3.00
2019-01-11T07:38:32.178Z,5.10
2019-01-11T07:39:32.183Z,4.30
2019-01-11T07:40:32.153Z,4.00
2019-01-11T07:41:32.144Z,3.50
2019-01-11T07:42:32.130Z,3.80
2019-01-11T07:43:32.121Z,3.40
2019-01-11T07:44:32.128Z,3.60
2019-01-11T07:45:32.097Z,3.50
2019-01-11T07:46:32.084Z,3.60
2019-01-11T07:47:32.078Z,4.40
2019-01-11T07:48:32.063Z,3.70
2019-01-11T07:49:32.050Z,3.10
2019-01-11T07:50:32.056Z,6.00
2019-01-11T07:51:32.036Z,6.70
2019-01-11T07:52:32.023Z,5.60
2019-01-11T07:53:32.015Z,3.20
2019-01-11T07:54:32.000Z,4.50
2019-01-11T07:55:32.010Z,4.10
2019-01-11T07:56:31.988Z,4.50
2019-01-11T07:57:31.973Z,2.80
2019-01-11T07:58:31.963Z,3.90
2019-01-11T07:59:31.947Z,5.00
2019-01-11T08:00:31.949Z,5.50
2019-01-11T08:01:31.928Z,4.50
2019-01-11T08:02:31.916Z,3.10
2019-01-11T08:03:31.904Z,10.50
2019-01-11T08:04:31.891Z,5.10
2019-01-11T08:05:31.890Z,4.60
2019-01-11T08:06:31.878Z,3.20
2019-01-11T08:07:31.856Z,3.40
2019-01-11T08:08:31.846Z,6.90
2019-01-11T08:09:31.836Z,3.00
2019-01-11T08:10:31.849Z,5.30
2019-01-11T08:11:31.813Z,3.90
2019-01-11T08:12:31.803Z,4.50
2019-01-11T08:13:31.795Z,3.70
2019-01-11T08:14:31.781Z,6.90
2019-01-11T08:15:31.772Z,2.70
2019-01-11T08:16:31.778Z,2.40
2019-01-11T08:17:31.746Z,3.90
2019-01-11T08:18:31.742Z,3.50
2019-01-11T08:19:31.724Z,2.90
2019-01-11T08:20:31.725Z,5.70
2019-01-11T08:21:31.723Z,4.50
2019-01-11T08:22:31.698Z,4.00
2019-01-11T08:23:31.686Z,3.30
2019-01-11T08:24:31.679Z,2.10
2019-01-11T08:25:31.662Z,4.10
2019-01-11T08:26:31.668Z,2.00
2019-01-11T08:27:31.664Z,3.40
2019-01-11T08:28:31.629Z,2.50
2019-01-11T08:29:31.621Z,1.80
2019-01-11T08:30:31.613Z,3.10
2019-01-11T08:31:34.790Z,4.50
2019-01-11T08:32:31.591Z,3.00
2019-01-11T08:33:31.577Z,3.20
2019-01-11T08:34:31.570Z,2.60
2019-01-11T08:35:31.564Z,4.30
2019-01-11T08:36:31.559Z,3.10
2019-01-11T08:37:31.543Z,2.50
2019-01-11T08:38:31.526Z,2.40
2019-01-11T08:39:32.524Z,1.70
2019-01-11T08:40:31.507Z,3.00
2019-01-11T08:41:31.518Z,2.60
2019-01-11T08:42:31.486Z,2.90
2019-01-11T08:43:31.485Z,2.80
2019-01-11T08:44:31.464Z,3.50
2019-01-11T08:45:31.456Z,2.90
2019-01-11T08:46:31.443Z,2.10
2019-01-11T08:47:31.448Z,3.20
2019-01-11T08:48:31.423Z,1.50
2019-01-11T08:49:31.413Z,2.70
2019-01-11T08:50:31.404Z,5.00
2019-01-11T08:51:31.395Z,2.90
2019-01-11T08:52:31.398Z,3.30
2019-01-11T08:53:31.372Z,2.90
2019-01-11T08:54:31.362Z,2.80
2019-01-11T08:55:31.346Z,1.40
2019-01-11T08:56:31.346Z,2.50
2019-01-11T08:57:31.345Z,2.00
2019-01-11T08:58:31.319Z,1.80
2019-01-11T08:59:31.316Z,4.40
2019-01-11T09:00:31.299Z,3.20
2019-01-11T09:01:31.296Z,2.70
2019-01-11T09:02:31.290Z,3.60
2019-01-11T09:03:31.268Z,2.00
2019-01-11T09:04:31.259Z,2.30
2019-01-11T09:05:31.241Z,3.00
2019-01-11T09:06:31.236Z,3.50
2019-01-11T09:07:31.240Z,2.70
2019-01-11T09:08:31.211Z,2.90
2019-01-11T09:09:31.200Z,2.70
2019-01-11T09:10:31.211Z,1.90
2019-01-11T09:11:31.179Z,2.30
2019-01-11T09:12:31.199Z,2.40
2019-01-11T09:13:31.158Z,2.10
2019-01-11T09:14:31.149Z,2.40
2019-01-11T09:15:31.137Z,3.30
2019-01-11T09:16:31.127Z,3.20
2019-01-11T09:17:31.112Z,1.80
2019-01-11T09:18:31.124Z,2.60
2019-01-11T09:19:31.091Z,2.60
2019-01-11T09:20:31.087Z,1.70
2019-01-11T09:21:31.076Z,2.50
2019-01-11T09:22:31.064Z,2.60
2019-01-11T09:23:31.074Z,2.40
2019-01-11T09:24:31.040Z,2.50
2019-01-11T09:25:31.030Z,2.50
2019-01-11T09:26:31.018Z,1.50
2019-01-11T09:27:31.012Z,2.10
2019-01-11T09:28:31.017Z,2.80
2019-01-11T09:29:30.991Z,2.60
2019-01-11T09:30:30.981Z,1.80
2019-01-11T09:31:30.967Z,1.80
2019-01-11T09:32:30.957Z,1.90
2019-01-11T09:33:30.965Z,2.50
2019-01-11T09:34:30.934Z,1.50
2019-01-11T09:35:30.922Z,2.00
2019-01-11T09:36:30.911Z,1.20
2019-01-11T09:37:30.928Z,2.90
2019-01-11T09:38:30.904Z,1.80
2019-01-11T09:39:38.519Z,2.10
2019-01-11T09:40:30.872Z,2.00
2019-01-11T09:41:30.865Z,1.60
2019-01-11T09:42:30.851Z,2.30
2019-01-11T09:43:30.867Z,2.70
2019-01-11T09:44:30.837Z,2.40
2019-01-11T09:45:30.820Z,2.20
2019-01-11T09:46:30.809Z,2.50
2019-01-11T09:47:30.795Z,1.70
2019-01-11T09:48:30.785Z,1.60
2019-01-11T09:49:30.797Z,2.60
2019-01-11T09:50:30.761Z,1.30
2019-01-11T09:51:30.752Z,2.50
2019-01-11T09:52:30.749Z,3.10
2019-01-11T09:53:30.734Z,2.60
2019-01-11T09:54:30.737Z,3.50
2019-01-11T09:55:30.720Z,2.60
2019-01-11T09:56:30.697Z,2.30
2019-01-11T09:57:30.689Z,2.30
2019-01-11T09:58:30.687Z,2.00
2019-01-11T09:59:35.065Z,2.30
2019-01-11T10:00:30.667Z,1.80
2019-01-11T10:01:30.649Z,1.70
2019-01-11T10:02:30.677Z,1.80
2019-01-11T10:03:30.624Z,2.00
2019-01-11T10:04:30.630Z,1.80
2019-01-11T10:05:30.601Z,1.80
2019-01-11T10:06:30.599Z,1.80
2019-01-11T10:07:30.586Z,1.60
2019-01-11T10:08:30.578Z,2.10
2019-01-11T10:09:30.592Z,1.40
2019-01-11T10:10:30.553Z,1.50
2019-01-11T10:11:30.541Z,1.50
2019-01-11T10:12:30.537Z,2.60
2019-01-11T10:13:30.520Z,2.90
2019-01-11T10:14:30.511Z,1.70
2019-01-11T10:15:30.531Z,1.40
2019-01-11T10:16:30.493Z,1.60
2019-01-11T10:17:30.478Z,1.60
2019-01-11T10:18:30.470Z,2.00
2019-01-11T10:19:30.463Z,2.10
2019-01-11T10:20:30.464Z,2.30
2019-01-11T10:21:30.438Z,2.10
2019-01-11T10:22:30.425Z,2.20
2019-01-11T10:23:30.420Z,2.80
2019-01-11T10:24:30.454Z,2.20
2019-01-11T10:25:30.414Z,2.10
2019-01-11T10:26:30.390Z,1.70
2019-01-11T10:27:30.377Z,1.30
2019-01-11T10:28:30.363Z,1.80
2019-01-11T10:29:30.359Z,1.30
2019-01-11T10:30:30.374Z,1.90
2019-01-11T10:31:30.336Z,2.50
2019-01-11T10:32:30.326Z,1.80
2019-01-11T10:33:35.966Z,2.60
2019-01-11T10:34:31.301Z,1.90
2019-01-11T10:35:30.313Z,2.00
2019-01-11T10:36:30.301Z,1.40
2019-01-11T10:37:30.273Z,2.00
2019-01-11T10:38:30.270Z,1.60
2019-01-11T10:39:30.252Z,1.60
2019-01-11T10:40:30.264Z,1.40
2019-01-11T10:41:30.235Z,1.60
2019-01-11T10:42:30.224Z,1.90
2019-01-11T10:43:30.211Z,1.40
2019-01-11T10:44:30.200Z,2.20
2019-01-11T10:45:30.186Z,2.00
2019-01-11T10:46:30.195Z,1.40
2019-01-11T10:47:30.166Z,2.60
2019-01-11T10:48:30.161Z,2.30
2019-01-11T10:49:30.142Z,1.90
2019-01-11T10:50:30.134Z,2.10
2019-01-11T10:51:30.139Z,1.90
2019-01-11T10:52:30.115Z,1.90
2019-01-11T10:53:30.108Z,3.00
2019-01-11T10:54:30.107Z,1.70
2019-01-11T10:55:30.086Z,2.80
2019-01-11T10:56:30.090Z,1.50
2019-01-11T10:57:30.063Z,2.10
2019-01-11T10:58:30.059Z,2.50
2019-01-11T10:59:30.043Z,2.50
2019-01-11T11:00:30.033Z,1.70
2019-01-11T11:01:30.034Z,1.60
2019-01-11T11:02:30.009Z,1.50
2019-01-11T11:03:29.997Z,3.20
2019-01-11T11:04:29.990Z,2.50
2019-01-11T11:05:29.979Z,2.30
2019-01-11T11:06:29.979Z,1.90
2019-01-11T11:07:29.965Z,1.60
2019-01-11T11:08:29.951Z,1.70
2019-01-11T11:09:29.935Z,1.50
2019-01-11T11:10:29.945Z,1.80
2019-01-11T11:11:29.936Z,1.90
2019-01-11T11:12:29.905Z,1.40
2019-01-11T11:13:29.892Z,2.00
2019-01-11T11:14:29.881Z,1.80
2019-01-11T11:15:29.874Z,1.60
2019-01-11T11:16:32.966Z,2.00
2019-01-11T11:17:29.853Z,2.30
2019-01-11T11:18:29.843Z,1.70
2019-01-11T11:19:29.839Z,1.20
2019-01-11T11:20:29.821Z,1.50
2019-01-11T11:21:34.677Z,1.70
2019-01-11T11:22:30.799Z,1.30
2019-01-11T11:23:29.783Z,1.50
2019-01-11T11:24:29.771Z,1.80
2019-01-11T11:25:30.187Z,1.70
2019-01-11T11:26:29.779Z,1.80
2019-01-11T11:27:29.742Z,1.50
2019-01-11T11:28:29.730Z,2.50
2019-01-11T11:29:29.720Z,1.50
2019-01-11T11:30:29.706Z,2.00
2019-01-11T11:31:29.701Z,1.30
2019-01-11T11:32:29.704Z,2.60
2019-01-11T11:33:29.681Z,1.50
2019-01-11T11:34:29.665Z,1.90
2019-01-11T11:35:29.661Z,2.00
2019-01-11T11:36:29.684Z,1.30
2019-01-11T11:37:29.703Z,1.50
2019-01-11T11:38:29.630Z,1.70
2019-01-11T11:39:29.608Z,1.90
2019-01-11T11:40:29.600Z,2.60
2019-01-11T11:41:29.592Z,5.00
2019-01-11T11:42:29.598Z,5.20
2019-01-11T11:43:29.566Z,3.60
2019-01-11T11:44:29.560Z,3.10
2019-01-11T11:45:29.548Z,2.70
2019-01-11T11:46:29.543Z,3.20
2019-01-11T11:47:29.547Z,3.60
2019-01-11T11:48:29.512Z,2.10
2019-01-11T11:49:29.506Z,2.70
2019-01-11T11:50:29.495Z,2.30
2019-01-11T11:51:29.483Z,3.40
2019-01-11T11:52:29.490Z,3.10
2019-01-11T11:53:29.458Z,2.60
2019-01-11T11:54:29.450Z,2.90
2019-01-11T11:55:29.438Z,2.30
2019-01-11T11:56:29.431Z,2.30
2019-01-11T11:57:29.446Z,3.60
2019-01-11T11:58:29.402Z,3.50
2019-01-11T11:59:29.398Z,2.80
2019-01-11T12:00:29.397Z,3.90
2019-01-11T12:01:29.433Z,3.10
2019-01-11T12:02:29.369Z,2.70
2019-01-11T12:03:29.368Z,2.40
2019-01-11T12:04:29.340Z,3.40
2019-01-11T12:05:29.327Z,3.20
2019-01-11T12:06:29.319Z,2.50
2019-01-11T12:07:29.309Z,4.20
2019-01-11T12:08:29.315Z,3.80
2019-01-11T12:09:29.285Z,3.00
2019-01-11T12:10:29.285Z,2.20
2019-01-11T12:11:29.266Z,2.50
2019-01-11T12:12:29.259Z,2.80
2019-01-11T12:13:29.260Z,2.20
2019-01-11T12:14:29.231Z,2.20
2019-01-11T12:15:29.223Z,4.90
2019-01-11T12:16:29.214Z,2.30
2019-01-11T12:17:29.201Z,2.90
2019-01-11T12:18:29.206Z,3.00
2019-01-11T12:19:29.184Z,2.00
2019-01-11T12:20:29.172Z,3.50
2019-01-11T12:21:29.167Z,2.20
2019-01-11T12:22:29.147Z,2.50
2019-01-11T12:23:29.150Z,2.40
2019-01-11T12:24:29.194Z,2.70
2019-01-11T12:25:29.118Z,2.40
2019-01-11T12:26:29.115Z,2.60
2019-01-11T12:27:29.096Z,3.20
2019-01-11T12:28:29.113Z,3.00
2019-01-11T12:29:29.069Z,2.10
2019-01-11T12:30:29.059Z,2.50
2019-01-11T12:31:29.056Z,1.90
2019-01-11T12:32:29.045Z,2.20
2019-01-11T12:33:29.031Z,2.80
2019-01-11T12:34:29.037Z,2.70
2019-01-11T12:35:29.016Z,2.70
2019-01-11T12:36:28.999Z,3.10
2019-01-11T12:37:28.985Z,2.30
2019-01-11T12:38:28.977Z,3.40
2019-01-11T12:39:28.985Z,2.50
2019-01-11T12:40:28.955Z,1.90
2019-01-11T12:41:28.944Z,1.70
2019-01-11T12:42:28.929Z,2.40
2019-01-11T12:43:28.920Z,3.20
2019-01-11T12:44:28.924Z,1.90
2019-01-11T12:45:28.900Z,2.10
2019-01-11T12:46:28.893Z,2.80
2019-01-11T12:47:28.872Z,2.70
2019-01-11T12:48:28.867Z,2.40
2019-01-11T12:49:28.877Z,2.60
2019-01-11T12:50:28.845Z,3.10
2019-01-11T12:51:28.837Z,3.50
2019-01-11T12:52:28.826Z,4.40
2019-01-11T12:53:28.823Z,4.00
2019-01-11T12:54:28.801Z,2.90
2019-01-11T12:55:28.797Z,3.60
2019-01-11T12:56:28.785Z,2.70
2019-01-11T12:57:28.775Z,2.50
2019-01-11T12:58:28.767Z,4.10
2019-01-11T12:59:28.747Z,2.30
2019-01-11T13:00:28.756Z,4.80
2019-01-11T13:01:28.725Z,2.70
2019-01-11T13:02:28.717Z,4.40
2019-01-11T13:03:28.710Z,2.00
2019-01-11T13:04:28.697Z,3.00
2019-01-11T13:05:28.702Z,3.10
2019-01-11T13:06:28.672Z,2.90
2019-01-11T13:07:28.665Z,3.40
2019-01-11T13:08:28.653Z,2.90
2019-01-11T13:09:28.643Z,2.20
2019-01-11T13:10:28.642Z,2.30
2019-01-11T13:11:28.625Z,2.30
2019-01-11T13:12:28.610Z,3.10
2019-01-11T13:13:28.606Z,1.90
2019-01-11T13:14:28.588Z,2.40
2019-01-11T13:15:28.590Z,2.20
2019-01-11T13:16:28.573Z,3.60
2019-01-11T13:17:28.552Z,2.70